Pagina principale
METAR-TAF:

METAR-TAF

Aeroporti :

Aeroporto militare Cameri

Novara, Italia

latitudine: 45-31N, longitudine: 008-40E, altezza: 178 m

Osservazione

Il bollettino è stato emesso 21 ore e 41 minuti fa, alle 17:55 UTC
Vento 6 kt da sud-est
Temperature 27°C
Umidità 48%
Pressione 1012 hPa
Visibilità 10 km o più
Poco nuvoloso ad un'altezza di 4000 ft
Nubi sparse ad un'altezza di 5000 ft

METAR: LIMN 121755Z 14006KT 9999 FEW040 SCT050 27/15 Q1012

Ora: 17:36 (15:36 UTC)

Previsione

Il bollettino è stato emesso 22 ore e 36 minuti fa, alle 17:00 UTC
Previsione valida dal 12 alle 18 UTC al 13 alle 03 UTC
Vento 8 kt da est/sud-est
Visibilità 10 km o più
Poco nuvoloso ad un'altezza di 3000 ft
Temporaneamente
dal 12 alle 18 UTC al 12 alle 21 UTC
Vento 10 kt da est
Visibilità: 8000 m

TAF: LIMN 121700Z 1218/1303 12008KT 9999 FEW030 TEMPO 1218/1221 10010KT 8000 SCTO30TCU

Osservazioni e previsioni meteorologiche di più di 4000 aeroporti (messaggi METAR e TAF).

Le stazioni disponibili sono rappresentate dai dischi gialli e rossi sulla carta.

Puntare il mouse per vedere il nome della stazione.

Clicca sopra per visualizzare le osservazioni e previsioni meteorologiche.

Per cambiare la mappa : fare clic sui pulsanti verdi con una croce nera per ingrandire, il pulsante verde con un trattino per diminuire, o sulla freccia verde per le mappe adiacenti.


METAR-TAF: